sensor_id;sensor_type;location;lat;lon;timestamp;temperature;humidity
49861;DHT22;35761;48.826;9.238;2022-10-26T00:01:24;13.20;60.10
49861;DHT22;35761;48.826;9.238;2022-10-26T00:03:54;13.20;60.20
49861;DHT22;35761;48.826;9.238;2022-10-26T00:06:24;13.20;60.50
49861;DHT22;35761;48.826;9.238;2022-10-26T00:08:55;13.20;59.80
49861;DHT22;35761;48.826;9.238;2022-10-26T00:11:23;13.20;60.10
49861;DHT22;35761;48.826;9.238;2022-10-26T00:13:52;13.10;60.40
49861;DHT22;35761;48.826;9.238;2022-10-26T00:16:22;13.20;60.50
49861;DHT22;35761;48.826;9.238;2022-10-26T00:18:52;13.10;61.00
49861;DHT22;35761;48.826;9.238;2022-10-26T00:21:20;13.10;61.30
49861;DHT22;35761;48.826;9.238;2022-10-26T00:23:49;13.10;61.80
49861;DHT22;35761;48.826;9.238;2022-10-26T00:26:18;13.00;61.90
49861;DHT22;35761;48.826;9.238;2022-10-26T00:28:46;13.10;61.60
49861;DHT22;35761;48.826;9.238;2022-10-26T00:31:15;13.00;61.70
49861;DHT22;35761;48.826;9.238;2022-10-26T00:33:44;13.00;61.80
49861;DHT22;35761;48.826;9.238;2022-10-26T00:36:12;13.00;62.20
49861;DHT22;35761;48.826;9.238;2022-10-26T00:38:46;13.00;62.80
49861;DHT22;35761;48.826;9.238;2022-10-26T00:41:16;12.90;63.20
49861;DHT22;35761;48.826;9.238;2022-10-26T00:43:47;13.00;63.30
49861;DHT22;35761;48.826;9.238;2022-10-26T00:46:18;13.00;62.80
49861;DHT22;35761;48.826;9.238;2022-10-26T00:48:50;13.00;62.40
49861;DHT22;35761;48.826;9.238;2022-10-26T00:51:24;13.00;62.40
49861;DHT22;35761;48.826;9.238;2022-10-26T00:53:56;13.00;62.30
49861;DHT22;35761;48.826;9.238;2022-10-26T00:56:26;13.00;62.40
49861;DHT22;35761;48.826;9.238;2022-10-26T00:58:58;13.00;62.90
49861;DHT22;35761;48.826;9.238;2022-10-26T01:01:28;13.00;62.50
49861;DHT22;35761;48.826;9.238;2022-10-26T01:03:56;12.90;62.50
49861;DHT22;35761;48.826;9.238;2022-10-26T01:06:26;12.90;62.80
49861;DHT22;35761;48.826;9.238;2022-10-26T01:08:55;13.00;62.60
49861;DHT22;35761;48.826;9.238;2022-10-26T01:11:24;13.00;62.80
49861;DHT22;35761;48.826;9.238;2022-10-26T01:13:54;13.00;63.20
49861;DHT22;35761;48.826;9.238;2022-10-26T01:16:38;13.00;63.80
49861;DHT22;35761;48.826;9.238;2022-10-26T01:19:36;13.00;63.80
49861;DHT22;35761;48.826;9.238;2022-10-26T01:22:21;13.00;64.50
49861;DHT22;35761;48.826;9.238;2022-10-26T01:24:59;13.00;65.10
49861;DHT22;35761;48.826;9.238;2022-10-26T01:27:33;13.00;65.70
49861;DHT22;35761;48.826;9.238;2022-10-26T01:30:29;13.00;65.60
49861;DHT22;35761;48.826;9.238;2022-10-26T01:33:18;13.00;66.20
49861;DHT22;35761;48.826;9.238;2022-10-26T01:36:04;13.00;66.50
49861;DHT22;35761;48.826;9.238;2022-10-26T01:38:42;13.00;67.00
49861;DHT22;35761;48.826;9.238;2022-10-26T01:41:19;13.00;67.20
49861;DHT22;35761;48.826;9.238;2022-10-26T01:43:53;13.00;67.60
49861;DHT22;35761;48.826;9.238;2022-10-26T01:46:25;13.00;68.30
49861;DHT22;35761;48.826;9.238;2022-10-26T01:48:58;13.00;68.80
49861;DHT22;35761;48.826;9.238;2022-10-26T01:51:31;13.00;69.10
49861;DHT22;35761;48.826;9.238;2022-10-26T01:53:59;13.00;69.50
49861;DHT22;35761;48.826;9.238;2022-10-26T01:56:30;13.00;69.60
49861;DHT22;35761;48.826;9.238;2022-10-26T01:59:29;12.90;69.80
49861;DHT22;35761;48.826;9.238;2022-10-26T02:02:24;13.00;69.70
49861;DHT22;35761;48.826;9.238;2022-10-26T02:05:39;13.00;70.30
49861;DHT22;35761;48.826;9.238;2022-10-26T02:08:25;12.90;70.20
49861;DHT22;35761;48.826;9.238;2022-10-26T02:11:08;12.90;70.60
49861;DHT22;35761;48.826;9.238;2022-10-26T02:13:45;12.90;71.20
49861;DHT22;35761;48.826;9.238;2022-10-26T02:16:19;12.90;71.60
49861;DHT22;35761;48.826;9.238;2022-10-26T02:18:59;12.90;72.60
49861;DHT22;35761;48.826;9.238;2022-10-26T02:21:34;12.90;72.70
49861;DHT22;35761;48.826;9.238;2022-10-26T02:24:05;12.90;72.10
49861;DHT22;35761;48.826;9.238;2022-10-26T02:26:42;12.90;72.70
49861;DHT22;35761;48.826;9.238;2022-10-26T02:29:14;12.90;73.10
49861;DHT22;35761;48.826;9.238;2022-10-26T02:31:46;12.90;73.40
49861;DHT22;35761;48.826;9.238;2022-10-26T02:34:20;12.80;73.10
49861;DHT22;35761;48.826;9.238;2022-10-26T02:36:52;12.80;73.70
49861;DHT22;35761;48.826;9.238;2022-10-26T02:39:21;12.90;73.20
49861;DHT22;35761;48.826;9.238;2022-10-26T02:41:50;12.80;73.00
49861;DHT22;35761;48.826;9.238;2022-10-26T02:44:23;12.80;73.30
49861;DHT22;35761;48.826;9.238;2022-10-26T02:46:54;12.70;73.40
49861;DHT22;35761;48.826;9.238;2022-10-26T02:49:25;12.70;73.60
49861;DHT22;35761;48.826;9.238;2022-10-26T02:52:00;12.70;73.60
49861;DHT22;35761;48.826;9.238;2022-10-26T02:54:34;12.70;73.70
49861;DHT22;35761;48.826;9.238;2022-10-26T02:57:09;12.60;73.60
49861;DHT22;35761;48.826;9.238;2022-10-26T02:59:41;12.60;73.50
49861;DHT22;35761;48.826;9.238;2022-10-26T03:02:11;12.70;73.80
49861;DHT22;35761;48.826;9.238;2022-10-26T03:04:41;12.60;74.30
49861;DHT22;35761;48.826;9.238;2022-10-26T03:07:09;12.70;73.60
49861;DHT22;35761;48.826;9.238;2022-10-26T03:09:38;12.70;73.00
49861;DHT22;35761;48.826;9.238;2022-10-26T03:12:06;12.70;72.90
49861;DHT22;35761;48.826;9.238;2022-10-26T03:14:34;12.70;73.10
49861;DHT22;35761;48.826;9.238;2022-10-26T03:17:03;12.70;72.60
49861;DHT22;35761;48.826;9.238;2022-10-26T03:19:31;12.70;71.80
49861;DHT22;35761;48.826;9.238;2022-10-26T03:22:00;12.80;70.90
49861;DHT22;35761;48.826;9.238;2022-10-26T03:24:29;12.70;70.30
49861;DHT22;35761;48.826;9.238;2022-10-26T03:26:57;12.70;70.40
49861;DHT22;35761;48.826;9.238;2022-10-26T03:29:28;12.70;70.80
49861;DHT22;35761;48.826;9.238;2022-10-26T03:31:56;12.70;71.00
49861;DHT22;35761;48.826;9.238;2022-10-26T03:34:24;12.70;71.00
49861;DHT22;35761;48.826;9.238;2022-10-26T03:36:53;12.70;71.00
49861;DHT22;35761;48.826;9.238;2022-10-26T03:39:22;12.70;70.80
49861;DHT22;35761;48.826;9.238;2022-10-26T03:41:50;12.70;71.20
49861;DHT22;35761;48.826;9.238;2022-10-26T03:44:20;12.70;71.60
49861;DHT22;35761;48.826;9.238;2022-10-26T03:46:48;12.70;71.40
49861;DHT22;35761;48.826;9.238;2022-10-26T03:49:16;12.70;70.80
49861;DHT22;35761;48.826;9.238;2022-10-26T03:51:45;12.70;70.70
49861;DHT22;35761;48.826;9.238;2022-10-26T03:54:13;12.70;71.50
49861;DHT22;35761;48.826;9.238;2022-10-26T03:56:42;12.70;71.20
49861;DHT22;35761;48.826;9.238;2022-10-26T03:59:11;12.70;71.40
49861;DHT22;35761;48.826;9.238;2022-10-26T04:01:39;12.70;71.40
49861;DHT22;35761;48.826;9.238;2022-10-26T04:04:08;12.70;71.20
49861;DHT22;35761;48.826;9.238;2022-10-26T04:06:36;12.70;71.40
49861;DHT22;35761;48.826;9.238;2022-10-26T04:09:04;12.80;70.80
49861;DHT22;35761;48.826;9.238;2022-10-26T04:11:34;12.80;70.70
49861;DHT22;35761;48.826;9.238;2022-10-26T04:14:03;12.80;70.60
49861;DHT22;35761;48.826;9.238;2022-10-26T04:16:32;12.80;70.30
49861;DHT22;35761;48.826;9.238;2022-10-26T04:19:00;12.80;70.50
49861;DHT22;35761;48.826;9.238;2022-10-26T04:21:28;12.80;70.20
49861;DHT22;35761;48.826;9.238;2022-10-26T04:23:58;12.90;70.00
49861;DHT22;35761;48.826;9.238;2022-10-26T04:26:27;12.90;70.30
49861;DHT22;35761;48.826;9.238;2022-10-26T04:28:55;12.90;69.80
49861;DHT22;35761;48.826;9.238;2022-10-26T04:31:25;13.00;69.50
49861;DHT22;35761;48.826;9.238;2022-10-26T04:33:53;13.00;69.60
49861;DHT22;35761;48.826;9.238;2022-10-26T04:36:21;13.00;70.10
49861;DHT22;35761;48.826;9.238;2022-10-26T04:38:49;13.00;69.80
49861;DHT22;35761;48.826;9.238;2022-10-26T04:41:18;13.00;69.40
49861;DHT22;35761;48.826;9.238;2022-10-26T04:43:46;13.10;69.30
49861;DHT22;35761;48.826;9.238;2022-10-26T04:46:14;13.10;69.10
49861;DHT22;35761;48.826;9.238;2022-10-26T04:48:44;13.20;69.10
49861;DHT22;35761;48.826;9.238;2022-10-26T04:51:14;13.20;69.10
49861;DHT22;35761;48.826;9.238;2022-10-26T04:53:43;13.20;69.70
49861;DHT22;35761;48.826;9.238;2022-10-26T04:56:11;13.20;70.00
49861;DHT22;35761;48.826;9.238;2022-10-26T04:58:39;13.20;69.40
49861;DHT22;35761;48.826;9.238;2022-10-26T05:01:07;13.20;69.80
49861;DHT22;35761;48.826;9.238;2022-10-26T05:03:36;13.10;70.10
49861;DHT22;35761;48.826;9.238;2022-10-26T05:06:06;13.10;70.40
49861;DHT22;35761;48.826;9.238;2022-10-26T05:08:34;13.10;70.30
49861;DHT22;35761;48.826;9.238;2022-10-26T05:11:03;13.10;70.50
49861;DHT22;35761;48.826;9.238;2022-10-26T05:13:31;13.10;71.10
49861;DHT22;35761;48.826;9.238;2022-10-26T05:16:00;13.10;70.70
49861;DHT22;35761;48.826;9.238;2022-10-26T05:18:28;13.10;71.20
49861;DHT22;35761;48.826;9.238;2022-10-26T05:20:56;13.10;71.60
49861;DHT22;35761;48.826;9.238;2022-10-26T05:23:26;13.10;71.20
49861;DHT22;35761;48.826;9.238;2022-10-26T05:25:54;13.10;71.50
49861;DHT22;35761;48.826;9.238;2022-10-26T05:28:23;13.10;71.30
49861;DHT22;35761;48.826;9.238;2022-10-26T05:30:51;13.10;71.30
49861;DHT22;35761;48.826;9.238;2022-10-26T05:33:20;13.10;71.60
49861;DHT22;35761;48.826;9.238;2022-10-26T05:35:52;13.20;71.30
49861;DHT22;35761;48.826;9.238;2022-10-26T05:38:21;13.20;71.10
49861;DHT22;35761;48.826;9.238;2022-10-26T05:40:52;13.20;71.20
49861;DHT22;35761;48.826;9.238;2022-10-26T05:43:22;13.20;71.10
49861;DHT22;35761;48.826;9.238;2022-10-26T05:45:51;13.20;71.20
49861;DHT22;35761;48.826;9.238;2022-10-26T05:48:20;13.20;71.20
49861;DHT22;35761;48.826;9.238;2022-10-26T05:50:48;13.20;71.00
49861;DHT22;35761;48.826;9.238;2022-10-26T05:53:17;13.30;71.00
49861;DHT22;35761;48.826;9.238;2022-10-26T05:55:46;13.30;70.70
49861;DHT22;35761;48.826;9.238;2022-10-26T05:58:16;13.30;70.60
49861;DHT22;35761;48.826;9.238;2022-10-26T06:00:54;13.30;70.60
49861;DHT22;35761;48.826;9.238;2022-10-26T06:03:37;13.40;69.80
49861;DHT22;35761;48.826;9.238;2022-10-26T06:06:12;13.40;70.10
49861;DHT22;35761;48.826;9.238;2022-10-26T06:08:41;13.50;69.70
49861;DHT22;35761;48.826;9.238;2022-10-26T06:11:11;13.40;69.40
49861;DHT22;35761;48.826;9.238;2022-10-26T06:13:41;13.40;69.80
49861;DHT22;35761;48.826;9.238;2022-10-26T06:16:34;13.40;70.00
49861;DHT22;35761;48.826;9.238;2022-10-26T06:19:17;13.40;69.70
49861;DHT22;35761;48.826;9.238;2022-10-26T06:22:03;13.40;69.80
49861;DHT22;35761;48.826;9.238;2022-10-26T06:24:40;13.50;69.50
49861;DHT22;35761;48.826;9.238;2022-10-26T06:27:18;13.50;69.40
49861;DHT22;35761;48.826;9.238;2022-10-26T06:29:58;13.50;69.50
49861;DHT22;35761;48.826;9.238;2022-10-26T06:32:28;13.40;69.80
49861;DHT22;35761;48.826;9.238;2022-10-26T06:35:06;13.50;69.80
49861;DHT22;35761;48.826;9.238;2022-10-26T06:37:41;13.50;70.70
49861;DHT22;35761;48.826;9.238;2022-10-26T06:40:14;13.50;71.20
49861;DHT22;35761;48.826;9.238;2022-10-26T06:42:44;13.50;71.80
49861;DHT22;35761;48.826;9.238;2022-10-26T06:45:16;13.50;72.00
49861;DHT22;35761;48.826;9.238;2022-10-26T06:47:48;13.50;73.00
49861;DHT22;35761;48.826;9.238;2022-10-26T06:50:29;13.40;73.40
49861;DHT22;35761;48.826;9.238;2022-10-26T06:53:11;13.40;73.10
49861;DHT22;35761;48.826;9.238;2022-10-26T06:55:47;13.40;72.80
49861;DHT22;35761;48.826;9.238;2022-10-26T06:58:18;13.50;73.40
49861;DHT22;35761;48.826;9.238;2022-10-26T07:00:51;13.50;72.00
49861;DHT22;35761;48.826;9.238;2022-10-26T07:03:21;13.60;70.30
49861;DHT22;35761;48.826;9.238;2022-10-26T07:05:49;13.70;69.70
49861;DHT22;35761;48.826;9.238;2022-10-26T07:08:18;13.60;69.60
49861;DHT22;35761;48.826;9.238;2022-10-26T07:10:46;13.70;69.70
49861;DHT22;35761;48.826;9.238;2022-10-26T07:13:14;13.70;69.40
49861;DHT22;35761;48.826;9.238;2022-10-26T07:15:43;13.70;70.00
49861;DHT22;35761;48.826;9.238;2022-10-26T07:18:13;13.70;70.00
49861;DHT22;35761;48.826;9.238;2022-10-26T07:20:42;13.60;70.20
49861;DHT22;35761;48.826;9.238;2022-10-26T07:23:10;13.70;71.00
49861;DHT22;35761;48.826;9.238;2022-10-26T07:25:38;13.60;71.40
49861;DHT22;35761;48.826;9.238;2022-10-26T07:28:08;13.60;71.30
49861;DHT22;35761;48.826;9.238;2022-10-26T07:30:38;13.70;70.50
49861;DHT22;35761;48.826;9.238;2022-10-26T07:33:09;13.70;71.20
49861;DHT22;35761;48.826;9.238;2022-10-26T07:35:40;13.70;71.40
49861;DHT22;35761;48.826;9.238;2022-10-26T07:38:08;13.70;72.10
49861;DHT22;35761;48.826;9.238;2022-10-26T07:40:39;13.80;71.00
49861;DHT22;35761;48.826;9.238;2022-10-26T07:43:07;13.80;70.40
49861;DHT22;35761;48.826;9.238;2022-10-26T07:45:36;13.90;70.60
49861;DHT22;35761;48.826;9.238;2022-10-26T07:48:06;14.00;70.20
49861;DHT22;35761;48.826;9.238;2022-10-26T07:50:35;14.10;69.30
49861;DHT22;35761;48.826;9.238;2022-10-26T07:53:04;14.20;68.10
49861;DHT22;35761;48.826;9.238;2022-10-26T07:55:33;14.30;67.20
49861;DHT22;35761;48.826;9.238;2022-10-26T07:58:01;14.30;67.20
49861;DHT22;35761;48.826;9.238;2022-10-26T08:00:30;14.40;66.30
49861;DHT22;35761;48.826;9.238;2022-10-26T08:02:58;14.50;65.90
49861;DHT22;35761;48.826;9.238;2022-10-26T08:05:28;14.60;64.50
49861;DHT22;35761;48.826;9.238;2022-10-26T08:07:57;14.70;64.40
49861;DHT22;35761;48.826;9.238;2022-10-26T08:10:27;14.70;64.10
49861;DHT22;35761;48.826;9.238;2022-10-26T08:12:55;14.70;64.40
49861;DHT22;35761;48.826;9.238;2022-10-26T08:15:24;14.80;64.00
49861;DHT22;35761;48.826;9.238;2022-10-26T08:17:52;14.80;63.30
49861;DHT22;35761;48.826;9.238;2022-10-26T08:20:21;14.90;63.60
49861;DHT22;35761;48.826;9.238;2022-10-26T08:22:49;14.90;63.50
49861;DHT22;35761;48.826;9.238;2022-10-26T08:25:18;14.90;63.40
49861;DHT22;35761;48.826;9.238;2022-10-26T08:27:49;15.00;62.10
49861;DHT22;35761;48.826;9.238;2022-10-26T08:30:17;15.10;61.40
49861;DHT22;35761;48.826;9.238;2022-10-26T08:32:46;15.10;61.00
49861;DHT22;35761;48.826;9.238;2022-10-26T08:35:15;15.20;60.70
49861;DHT22;35761;48.826;9.238;2022-10-26T08:37:43;15.20;60.80
49861;DHT22;35761;48.826;9.238;2022-10-26T08:40:15;15.30;60.20
49861;DHT22;35761;48.826;9.238;2022-10-26T08:42:46;15.30;60.10
49861;DHT22;35761;48.826;9.238;2022-10-26T08:45:22;15.30;59.50
49861;DHT22;35761;48.826;9.238;2022-10-26T08:48:00;15.30;60.40
49861;DHT22;35761;48.826;9.238;2022-10-26T08:50:33;15.30;61.60
49861;DHT22;35761;48.826;9.238;2022-10-26T08:53:14;15.20;62.00
49861;DHT22;35761;48.826;9.238;2022-10-26T08:55:47;15.20;62.60
49861;DHT22;35761;48.826;9.238;2022-10-26T08:58:22;15.30;62.00
49861;DHT22;35761;48.826;9.238;2022-10-26T09:00:54;15.30;61.50
49861;DHT22;35761;48.826;9.238;2022-10-26T09:03:23;15.30;62.00
49861;DHT22;35761;48.826;9.238;2022-10-26T09:06:03;15.30;62.80
49861;DHT22;35761;48.826;9.238;2022-10-26T09:08:41;15.30;63.40
49861;DHT22;35761;48.826;9.238;2022-10-26T09:11:27;15.30;63.70
49861;DHT22;35761;48.826;9.238;2022-10-26T09:14:12;15.30;63.70
49861;DHT22;35761;48.826;9.238;2022-10-26T09:16:52;15.40;63.40
49861;DHT22;35761;48.826;9.238;2022-10-26T09:19:36;15.40;62.70
49861;DHT22;35761;48.826;9.238;2022-10-26T09:22:23;15.50;62.30
49861;DHT22;35761;48.826;9.238;2022-10-26T09:24:55;15.60;61.40
49861;DHT22;35761;48.826;9.238;2022-10-26T09:27:26;15.60;61.90
49861;DHT22;35761;48.826;9.238;2022-10-26T09:29:59;15.60;61.40
49861;DHT22;35761;48.826;9.238;2022-10-26T09:32:36;15.60;61.90
49861;DHT22;35761;48.826;9.238;2022-10-26T09:35:13;15.70;62.60
49861;DHT22;35761;48.826;9.238;2022-10-26T09:37:47;15.70;60.90
49861;DHT22;35761;48.826;9.238;2022-10-26T09:40:23;15.80;61.70
49861;DHT22;35761;48.826;9.238;2022-10-26T09:42:57;15.90;60.00
49861;DHT22;35761;48.826;9.238;2022-10-26T09:45:31;15.90;60.70
49861;DHT22;35761;48.826;9.238;2022-10-26T09:48:06;16.00;59.40
49861;DHT22;35761;48.826;9.238;2022-10-26T09:50:42;16.10;58.20
49861;DHT22;35761;48.826;9.238;2022-10-26T09:53:11;16.20;58.30
49861;DHT22;35761;48.826;9.238;2022-10-26T09:55:41;16.30;57.70
49861;DHT22;35761;48.826;9.238;2022-10-26T09:58:15;16.40;57.10
49861;DHT22;35761;48.826;9.238;2022-10-26T10:00:47;16.50;56.70
49861;DHT22;35761;48.826;9.238;2022-10-26T10:03:18;16.70;55.60
49861;DHT22;35761;48.826;9.238;2022-10-26T10:05:48;16.70;56.40
49861;DHT22;35761;48.826;9.238;2022-10-26T10:08:20;16.70;56.10
49861;DHT22;35761;48.826;9.238;2022-10-26T10:10:54;16.70;56.20
49861;DHT22;35761;48.826;9.238;2022-10-26T10:13:25;16.80;54.30
49861;DHT22;35761;48.826;9.238;2022-10-26T10:16:05;16.80;55.50
49861;DHT22;35761;48.826;9.238;2022-10-26T10:18:38;16.80;55.70
49861;DHT22;35761;48.826;9.238;2022-10-26T10:21:08;16.90;54.20
49861;DHT22;35761;48.826;9.238;2022-10-26T10:23:47;16.90;54.80
49861;DHT22;35761;48.826;9.238;2022-10-26T10:26:18;16.90;56.00
49861;DHT22;35761;48.826;9.238;2022-10-26T10:28:56;16.90;57.30
49861;DHT22;35761;48.826;9.238;2022-10-26T10:31:31;16.90;56.80
49861;DHT22;35761;48.826;9.238;2022-10-26T10:34:14;17.00;55.20
49861;DHT22;35761;48.826;9.238;2022-10-26T10:36:43;17.20;55.50
49861;DHT22;35761;48.826;9.238;2022-10-26T10:39:27;17.20;56.70
49861;DHT22;35761;48.826;9.238;2022-10-26T10:42:03;17.30;55.80
49861;DHT22;35761;48.826;9.238;2022-10-26T10:44:32;17.50;52.30
49861;DHT22;35761;48.826;9.238;2022-10-26T10:47:05;17.60;52.50
49861;DHT22;35761;48.826;9.238;2022-10-26T10:49:34;17.70;53.80
49861;DHT22;35761;48.826;9.238;2022-10-26T10:52:02;17.70;50.70
49861;DHT22;35761;48.826;9.238;2022-10-26T10:54:32;17.90;50.30
49861;DHT22;35761;48.826;9.238;2022-10-26T10:57:10;18.00;49.80
49861;DHT22;35761;48.826;9.238;2022-10-26T10:59:58;18.10;48.90
49861;DHT22;35761;48.826;9.238;2022-10-26T11:02:56;18.10;48.80
49861;DHT22;35761;48.826;9.238;2022-10-26T11:05:51;18.10;48.90
49861;DHT22;35761;48.826;9.238;2022-10-26T11:08:27;18.10;48.20
49861;DHT22;35761;48.826;9.238;2022-10-26T11:10:59;18.10;49.60
49861;DHT22;35761;48.826;9.238;2022-10-26T11:13:34;18.10;48.90
49861;DHT22;35761;48.826;9.238;2022-10-26T11:16:08;18.30;48.00
49861;DHT22;35761;48.826;9.238;2022-10-26T11:18:42;18.50;47.00
49861;DHT22;35761;48.826;9.238;2022-10-26T11:21:21;18.70;46.80
49861;DHT22;35761;48.826;9.238;2022-10-26T11:23:55;18.90;45.90
49861;DHT22;35761;48.826;9.238;2022-10-26T11:26:30;19.00;45.10
49861;DHT22;35761;48.826;9.238;2022-10-26T11:29:02;19.10;43.30
49861;DHT22;35761;48.826;9.238;2022-10-26T11:31:37;19.00;44.80
49861;DHT22;35761;48.826;9.238;2022-10-26T11:34:17;19.00;45.10
49861;DHT22;35761;48.826;9.238;2022-10-26T11:36:52;19.00;44.80
49861;DHT22;35761;48.826;9.238;2022-10-26T11:39:33;19.10;44.10
49861;DHT22;35761;48.826;9.238;2022-10-26T11:42:08;19.20;44.00
49861;DHT22;35761;48.826;9.238;2022-10-26T11:44:48;19.30;44.70
49861;DHT22;35761;48.826;9.238;2022-10-26T11:47:24;19.50;44.70
49861;DHT22;35761;48.826;9.238;2022-10-26T11:50:05;19.60;42.50
49861;DHT22;35761;48.826;9.238;2022-10-26T11:52:46;19.70;41.50
49861;DHT22;35761;48.826;9.238;2022-10-26T11:55:19;19.70;41.00
49861;DHT22;35761;48.826;9.238;2022-10-26T11:57:49;19.70;41.30
49861;DHT22;35761;48.826;9.238;2022-10-26T12:00:20;19.70;40.40
49861;DHT22;35761;48.826;9.238;2022-10-26T12:02:52;19.70;42.10
49861;DHT22;35761;48.826;9.238;2022-10-26T12:05:49;19.70;41.30
49861;DHT22;35761;48.826;9.238;2022-10-26T12:08:22;19.70;40.70
49861;DHT22;35761;48.826;9.238;2022-10-26T12:11:00;19.80;40.20
49861;DHT22;35761;48.826;9.238;2022-10-26T12:13:38;19.70;40.50
49861;DHT22;35761;48.826;9.238;2022-10-26T12:16:15;19.70;39.90
49861;DHT22;35761;48.826;9.238;2022-10-26T12:18:50;19.70;40.10
49861;DHT22;35761;48.826;9.238;2022-10-26T12:21:26;19.60;41.80
49861;DHT22;35761;48.826;9.238;2022-10-26T12:23:57;19.60;41.70
49861;DHT22;35761;48.826;9.238;2022-10-26T12:26:50;19.60;41.50
49861;DHT22;35761;48.826;9.238;2022-10-26T12:29:33;19.70;42.00
49861;DHT22;35761;48.826;9.238;2022-10-26T12:35:37;19.90;43.10
49861;DHT22;35761;48.826;9.238;2022-10-26T12:38:57;20.30;40.50
49861;DHT22;35761;48.826;9.238;2022-10-26T12:41:26;20.40;38.70
49861;DHT22;35761;48.826;9.238;2022-10-26T12:43:57;20.40;39.20
49861;DHT22;35761;48.826;9.238;2022-10-26T12:46:37;20.40;39.00
49861;DHT22;35761;48.826;9.238;2022-10-26T12:52:51;20.30;39.80
49861;DHT22;35761;48.826;9.238;2022-10-26T12:56:01;20.20;40.30
49861;DHT22;35761;48.826;9.238;2022-10-26T13:01:56;20.20;40.70
49861;DHT22;35761;48.826;9.238;2022-10-26T13:05:28;20.20;40.80
49861;DHT22;35761;48.826;9.238;2022-10-26T13:08:06;20.30;40.30
49861;DHT22;35761;48.826;9.238;2022-10-26T13:10:36;20.30;40.80
49861;DHT22;35761;48.826;9.238;2022-10-26T13:13:17;20.30;40.10
49861;DHT22;35761;48.826;9.238;2022-10-26T13:15:52;20.30;40.70
49861;DHT22;35761;48.826;9.238;2022-10-26T13:18:22;20.40;40.90
49861;DHT22;35761;48.826;9.238;2022-10-26T13:20:53;20.40;40.00
49861;DHT22;35761;48.826;9.238;2022-10-26T13:23:28;20.40;40.20
49861;DHT22;35761;48.826;9.238;2022-10-26T13:26:04;20.50;40.40
49861;DHT22;35761;48.826;9.238;2022-10-26T13:28:45;20.50;40.60
49861;DHT22;35761;48.826;9.238;2022-10-26T13:31:53;20.70;39.80
49861;DHT22;35761;48.826;9.238;2022-10-26T13:34:27;20.80;41.80
49861;DHT22;35761;48.826;9.238;2022-10-26T13:37:10;21.10;39.90
49861;DHT22;35761;48.826;9.238;2022-10-26T13:39:42;21.30;39.70
49861;DHT22;35761;48.826;9.238;2022-10-26T13:42:15;21.50;38.80
49861;DHT22;35761;48.826;9.238;2022-10-26T13:44:52;21.60;38.90
49861;DHT22;35761;48.826;9.238;2022-10-26T13:47:26;21.80;37.80
49861;DHT22;35761;48.826;9.238;2022-10-26T13:49:59;22.00;37.80
49861;DHT22;35761;48.826;9.238;2022-10-26T13:52:34;22.10;37.10
49861;DHT22;35761;48.826;9.238;2022-10-26T13:55:09;22.30;36.80
49861;DHT22;35761;48.826;9.238;2022-10-26T13:57:48;22.50;36.10
49861;DHT22;35761;48.826;9.238;2022-10-26T14:00:28;22.50;35.60
49861;DHT22;35761;48.826;9.238;2022-10-26T14:02:56;22.70;35.30
49861;DHT22;35761;48.826;9.238;2022-10-26T14:05:25;22.80;34.90
49861;DHT22;35761;48.826;9.238;2022-10-26T14:07:55;22.80;34.60
49861;DHT22;35761;48.826;9.238;2022-10-26T14:10:27;23.00;34.60
49861;DHT22;35761;48.826;9.238;2022-10-26T14:12:57;23.00;33.30
49861;DHT22;35761;48.826;9.238;2022-10-26T14:15:28;22.90;33.60
49861;DHT22;35761;48.826;9.238;2022-10-26T14:17:59;22.80;33.80
49861;DHT22;35761;48.826;9.238;2022-10-26T14:20:30;22.70;34.20
49861;DHT22;35761;48.826;9.238;2022-10-26T14:22:59;22.80;33.90
49861;DHT22;35761;48.826;9.238;2022-10-26T14:25:28;22.70;34.30
49861;DHT22;35761;48.826;9.238;2022-10-26T14:28:25;22.70;34.30
49861;DHT22;35761;48.826;9.238;2022-10-26T14:31:09;22.70;34.70
49861;DHT22;35761;48.826;9.238;2022-10-26T14:33:45;22.90;34.20
49861;DHT22;35761;48.826;9.238;2022-10-26T14:36:15;23.00;34.00
49861;DHT22;35761;48.826;9.238;2022-10-26T14:38:47;23.20;33.30
49861;DHT22;35761;48.826;9.238;2022-10-26T14:41:17;23.20;33.10
49861;DHT22;35761;48.826;9.238;2022-10-26T14:43:46;23.20;33.30
49861;DHT22;35761;48.826;9.238;2022-10-26T14:46:17;23.30;32.70
49861;DHT22;35761;48.826;9.238;2022-10-26T14:48:52;23.40;32.80
49861;DHT22;35761;48.826;9.238;2022-10-26T14:51:26;23.50;32.20
49861;DHT22;35761;48.826;9.238;2022-10-26T14:53:57;23.50;32.10
49861;DHT22;35761;48.826;9.238;2022-10-26T14:56:29;23.40;32.20
49861;DHT22;35761;48.826;9.238;2022-10-26T14:59:11;23.40;32.30
49861;DHT22;35761;48.826;9.238;2022-10-26T15:01:53;23.30;33.00
49861;DHT22;35761;48.826;9.238;2022-10-26T15:04:28;23.20;33.20
49861;DHT22;35761;48.826;9.238;2022-10-26T15:07:08;23.20;33.00
49861;DHT22;35761;48.826;9.238;2022-10-26T15:09:43;23.20;33.20
49861;DHT22;35761;48.826;9.238;2022-10-26T15:12:21;23.30;33.90
49861;DHT22;35761;48.826;9.238;2022-10-26T15:14:54;23.40;32.60
49861;DHT22;35761;48.826;9.238;2022-10-26T15:17:29;23.40;32.60
49861;DHT22;35761;48.826;9.238;2022-10-26T15:20:05;23.60;32.80
49861;DHT22;35761;48.826;9.238;2022-10-26T15:22:34;23.50;32.60
49861;DHT22;35761;48.826;9.238;2022-10-26T15:25:05;23.40;31.90
49861;DHT22;35761;48.826;9.238;2022-10-26T15:27:33;23.40;32.00
49861;DHT22;35761;48.826;9.238;2022-10-26T15:30:15;23.20;32.60
49861;DHT22;35761;48.826;9.238;2022-10-26T15:32:47;23.10;33.10
49861;DHT22;35761;48.826;9.238;2022-10-26T15:35:26;23.00;33.30
49861;DHT22;35761;48.826;9.238;2022-10-26T15:37:56;22.80;33.80
49861;DHT22;35761;48.826;9.238;2022-10-26T15:40:27;22.90;33.90
49861;DHT22;35761;48.826;9.238;2022-10-26T15:42:58;22.80;33.80
49861;DHT22;35761;48.826;9.238;2022-10-26T15:45:29;22.70;33.90
49861;DHT22;35761;48.826;9.238;2022-10-26T15:48:16;22.60;34.10
49861;DHT22;35761;48.826;9.238;2022-10-26T15:50:46;22.60;35.00
49861;DHT22;35761;48.826;9.238;2022-10-26T15:53:17;22.50;34.90
49861;DHT22;35761;48.826;9.238;2022-10-26T15:55:50;22.40;35.30
49861;DHT22;35761;48.826;9.238;2022-10-26T15:58:19;22.30;35.20
49861;DHT22;35761;48.826;9.238;2022-10-26T16:00:47;22.10;35.60
49861;DHT22;35761;48.826;9.238;2022-10-26T16:03:20;22.10;36.10
49861;DHT22;35761;48.826;9.238;2022-10-26T16:05:54;22.00;36.10
49861;DHT22;35761;48.826;9.238;2022-10-26T16:08:26;22.00;36.40
49861;DHT22;35761;48.826;9.238;2022-10-26T16:10:55;21.90;36.20
49861;DHT22;35761;48.826;9.238;2022-10-26T16:13:23;21.90;36.40
49861;DHT22;35761;48.826;9.238;2022-10-26T16:15:52;21.80;36.00
49861;DHT22;35761;48.826;9.238;2022-10-26T16:18:22;21.70;35.80
49861;DHT22;35761;48.826;9.238;2022-10-26T16:20:50;21.60;35.40